Time;durP1;ratioP1;P1;durP2;ratioP2;P2;SDS_P1;SDS_P2;PMS_P1;PMS_P2;Temp;Humidity;BMP_temperature;BMP_pressure;BME280_temperature;BME280_humidity;BME280_pressure;Samples;Min_cycle;Max_cycle;Signal;HPM_P1;HPM_P2
2023/03/28 00:01:31;;;;;;;4.80;3.42;;;14.70;56.60;;;;;;5080628;28;20035;-84
2023/03/28 00:03:56;;;;;;;4.25;3.10;;;14.70;56.60;;;;;;5079594;28;20082;-85
2023/03/28 00:06:25;;;;;;;3.85;2.90;;;14.70;56.70;;;;;;5058292;28;20029;-86
2023/03/28 00:08:51;;;;;;;4.45;3.00;;;14.70;56.70;;;;;;5076264;28;20017;-84
2023/03/28 00:11:19;;;;;;;5.13;3.30;;;14.70;56.70;;;;;;5076199;28;20028;-86
2023/03/28 00:13:56;;;;;;;5.38;3.00;;;14.70;56.80;;;;;;5076094;28;20020;-85
2023/03/28 00:16:24;;;;;;;4.25;2.65;;;14.60;56.70;;;;;;5076291;28;20017;-85
2023/03/28 00:18:51;;;;;;;4.20;2.78;;;14.60;56.80;;;;;;5076367;28;20487;-84
2023/03/28 00:21:28;;;;;;;4.22;2.95;;;14.60;56.90;;;;;;5076130;28;20068;-83
2023/03/28 00:24:00;;;;;;;3.83;2.65;;;14.60;56.90;;;;;;5076456;28;20039;-85
2023/03/28 00:26:27;;;;;;;3.35;2.60;;;14.60;57.00;;;;;;5076372;28;20058;-85
2023/03/28 00:28:54;;;;;;;3.72;2.72;;;14.60;57.00;;;;;;5058374;28;20028;-85
2023/03/28 00:31:20;;;;;;;4.70;2.90;;;14.60;57.10;;;;;;5060186;28;20039;-85
2023/03/28 00:33:46;;;;;;;3.67;2.90;;;14.60;57.10;;;;;;5076970;28;20446;-84
2023/03/28 00:36:17;;;;;;;3.30;2.95;;;14.50;57.20;;;;;;5076066;28;20053;-85
2023/03/28 00:38:45;;;;;;;3.03;2.30;;;14.50;57.20;;;;;;5075997;28;20024;-84
2023/03/28 00:41:14;;;;;;;2.78;2.45;;;14.50;57.20;;;;;;5075830;28;20086;-85
2023/03/28 00:43:49;;;;;;;2.80;2.38;;;14.50;57.30;;;;;;5076109;28;20054;-84
2023/03/28 00:46:37;;;;;;;3.33;2.60;;;14.50;57.40;;;;;;5075648;28;20021;-85
2023/03/28 00:49:09;;;;;;;2.40;2.20;;;14.50;57.40;;;;;;5076043;28;20024;-85
2023/03/28 00:51:49;;;;;;;2.42;2.22;;;14.50;57.40;;;;;;5074997;28;20047;-86
2023/03/28 00:54:18;;;;;;;2.85;2.50;;;14.50;57.50;;;;;;5057959;28;20028;-85
2023/03/28 00:56:47;;;;;;;2.58;2.38;;;14.50;57.50;;;;;;5075917;28;20031;-85
2023/03/28 00:59:18;;;;;;;2.42;2.22;;;14.50;57.60;;;;;;5076177;28;20066;-85
2023/03/28 01:01:44;;;;;;;3.38;2.65;;;14.50;57.60;;;;;;5076422;28;20036;-86
2023/03/28 01:04:12;;;;;;;2.60;2.40;;;14.40;57.60;;;;;;5057662;28;20428;-86
2023/03/28 01:06:45;;;;;;;3.28;2.70;;;14.50;57.60;;;;;;5075336;28;20025;-86
2023/03/28 01:09:13;;;;;;;2.70;2.50;;;14.40;57.60;;;;;;5057473;28;20020;-83
2023/03/28 01:11:40;;;;;;;2.75;2.50;;;14.40;57.60;;;;;;5075237;28;20029;-87
2023/03/28 01:14:08;;;;;;;3.05;2.47;;;14.40;57.60;;;;;;5075558;28;20037;-85
2023/03/28 01:16:40;;;;;;;2.58;2.38;;;14.40;57.70;;;;;;5075580;28;20142;-86
2023/03/28 01:19:13;;;;;;;2.25;2.05;;;14.40;57.70;;;;;;5075457;28;20038;-86
2023/03/28 01:21:47;;;;;;;2.60;2.40;;;14.40;57.80;;;;;;5074996;28;20055;-85
2023/03/28 01:24:43;;;;;;;2.53;2.33;;;14.40;57.80;;;;;;5075398;28;20340;-85
2023/03/28 01:27:12;;;;;;;2.75;2.47;;;14.40;57.90;;;;;;5075660;28;20033;-85
2023/03/28 01:30:02;;;;;;;2.72;2.53;;;14.30;57.80;;;;;;5075023;28;20166;-85
2023/03/28 01:33:02;;;;;;;3.15;2.50;;;14.40;58.10;;;;;;5074950;28;20040;-86
2023/03/28 01:36:00;;;;;;;2.25;2.05;;;14.30;58.00;;;;;;5059730;28;20106;-86
2023/03/28 01:38:31;;;;;;;3.50;2.60;;;14.30;58.10;;;;;;5074659;28;20051;-86
2023/03/28 01:41:24;;;;;;;2.85;1.95;;;14.30;57.90;;;;;;5075206;28;20024;-85
2023/03/28 01:44:03;;;;;;;2.28;2.05;;;14.30;58.00;;;;;;5074937;28;20089;-86
2023/03/28 01:46:35;;;;;;;2.50;2.30;;;14.30;58.20;;;;;;5075304;28;20035;-86
2023/03/28 01:49:01;;;;;;;3.35;2.55;;;14.30;58.10;;;;;;5073613;28;20115;-86
2023/03/28 01:51:44;;;;;;;3.08;2.60;;;14.30;58.20;;;;;;5074811;28;20470;-86
2023/03/28 01:54:32;;;;;;;2.78;2.42;;;14.30;58.30;;;;;;5074038;28;20036;-86
2023/03/28 01:57:25;;;;;;;2.88;2.55;;;14.30;58.30;;;;;;5074726;28;20059;-86
2023/03/28 02:00:00;;;;;;;3.58;2.60;;;14.30;58.40;;;;;;5074813;28;20120;-86
2023/03/28 02:02:35;;;;;;;3.22;2.63;;;14.30;58.30;;;;;;5074365;28;20527;-86
2023/03/28 02:05:06;;;;;;;3.80;2.70;;;14.30;58.30;;;;;;5074543;28;20076;-86
2023/03/28 02:07:33;;;;;;;2.88;2.50;;;14.30;58.30;;;;;;5074593;28;20066;-85
2023/03/28 02:10:02;;;;;;;3.10;2.75;;;14.30;58.40;;;;;;5073774;28;20020;-87
2023/03/28 02:12:36;;;;;;;2.95;2.60;;;14.30;58.40;;;;;;5074680;28;20029;-85
2023/03/28 02:15:04;;;;;;;;;;;14.20;58.40;;;;;;5075296;28;20021;-85
2023/03/28 02:17:37;;;;;;;2.90;2.58;;;14.30;58.80;;;;;;5074996;28;19908;-85
2023/03/28 02:20:07;;;;;;;2.67;2.40;;;14.30;58.40;;;;;;5075283;28;20509;-85
2023/03/28 02:22:51;;;;;;;2.78;2.40;;;14.30;58.40;;;;;;5074445;28;20524;-85
2023/03/28 02:25:17;;;;;;;4.13;2.47;;;14.30;58.50;;;;;;5074893;28;20024;-87
2023/03/28 02:27:46;;;;;;;2.80;2.40;;;14.30;58.40;;;;;;5075594;28;20025;-86
2023/03/28 02:30:12;;;;;;;4.30;2.60;;;14.20;58.40;;;;;;5074082;28;20040;-85
2023/03/28 02:32:39;;;;;;;3.97;2.75;;;14.30;58.50;;;;;;5073764;28;20515;-86
2023/03/28 02:35:06;;;;;;;3.45;2.83;;;14.20;58.40;;;;;;5076024;28;20174;-86
2023/03/28 02:38:02;;;;;;;3.30;2.55;;;14.30;58.40;;;;;;5074682;28;20485;-84
2023/03/28 02:40:31;;;;;;;3.90;2.83;;;14.30;58.50;;;;;;5073894;28;20025;-82
2023/03/28 02:43:18;;;;;;;3.20;2.78;;;14.30;58.40;;;;;;5056032;28;20487;-85
2023/03/28 02:46:21;;;;;;;3.50;2.92;;;14.30;58.40;;;;;;5056466;28;20161;-85
2023/03/28 02:48:46;;;;;;;4.00;2.72;;;14.30;58.60;;;;;;5074083;28;20036;-86
2023/03/28 02:51:33;;;;;;;3.17;2.55;;;14.30;58.40;;;;;;5073925;28;20082;-86
2023/03/28 02:54:21;;;;;;;3.10;2.60;;;14.20;58.40;;;;;;5074045;28;20044;-86
2023/03/28 02:57:05;;;;;;;3.65;2.80;;;14.20;58.40;;;;;;5073647;28;20035;-87
2023/03/28 02:59:46;;;;;;;3.33;2.60;;;14.20;58.40;;;;;;5073492;28;20024;-86
2023/03/28 03:02:17;;;;;;;4.10;2.90;;;14.20;58.40;;;;;;5073514;28;20025;-86
2023/03/28 03:04:43;;;;;;;3.25;2.95;;;14.20;58.40;;;;;;5073956;28;20032;-86
2023/03/28 03:07:09;;;;;;;2.80;2.40;;;14.20;58.40;;;;;;5073481;28;20024;-85
2023/03/28 03:09:34;;;;;;;4.75;2.92;;;14.20;58.40;;;;;;5073422;28;20107;-85
2023/03/28 03:12:00;;;;;;;2.97;2.60;;;14.20;58.50;;;;;;5073448;28;20078;-85
2023/03/28 03:14:26;;;;;;;4.20;2.95;;;14.20;58.50;;;;;;5077891;28;20029;-87
2023/03/28 03:16:51;;;;;;;4.93;2.80;;;14.20;58.50;;;;;;5059043;28;20020;-87
2023/03/28 03:19:18;;;;;;;3.35;2.60;;;14.20;58.50;;;;;;5077876;28;20038;-82
2023/03/28 03:21:44;;;;;;;3.55;2.70;;;14.20;58.50;;;;;;5077542;28;20029;-81
2023/03/28 03:24:09;;;;;;;3.92;3.10;;;14.20;58.50;;;;;;5077299;28;20029;-85
2023/03/28 03:26:35;;;;;;;3.45;2.70;;;14.20;58.50;;;;;;5059676;28;20052;-86
2023/03/28 03:29:01;;;;;;;3.78;2.65;;;14.20;58.50;;;;;;5077567;28;20107;-85
2023/03/28 03:31:27;;;;;;;4.13;2.63;;;14.20;58.60;;;;;;5070410;28;20039;-84
2023/03/28 03:33:53;;;;;;;3.47;2.65;;;14.20;58.60;;;;;;5097701;28;20040;-84
2023/03/28 03:36:19;;;;;;;3.28;2.78;;;14.10;58.50;;;;;;5097436;28;20494;-85
2023/03/28 03:38:46;;;;;;;3.20;2.70;;;14.10;58.50;;;;;;5098158;28;20032;-85
2023/03/28 03:41:13;;;;;;;4.65;2.88;;;14.10;58.60;;;;;;5098625;28;20044;-86
2023/03/28 03:43:38;;;;;;;3.38;2.80;;;14.10;58.60;;;;;;5099618;28;20028;-86
2023/03/28 03:46:04;;;;;;;3.20;2.70;;;14.10;58.50;;;;;;5099219;28;20035;-86
2023/03/28 03:48:30;;;;;;;2.85;2.60;;;14.10;58.60;;;;;;5098756;28;20028;-86
2023/03/28 03:50:56;;;;;;;3.25;2.60;;;14.10;58.60;;;;;;5098406;28;20028;-86
2023/03/28 03:53:21;;;;;;;2.78;2.50;;;14.10;58.60;;;;;;5080283;28;20115;-86
2023/03/28 03:55:47;;;;;;;2.30;2.03;;;14.10;58.60;;;;;;5098529;28;20039;-86
2023/03/28 03:58:13;;;;;;;3.05;2.70;;;14.10;58.50;;;;;;5099974;28;20020;-86
2023/03/28 04:00:38;;;;;;;4.28;2.70;;;14.10;58.50;;;;;;5093060;28;20032;-86
2023/03/28 04:03:04;;;;;;;2.60;2.40;;;14.10;58.50;;;;;;5077487;28;20036;-86
2023/03/28 04:05:30;;;;;;;2.53;2.33;;;14.10;58.50;;;;;;5080149;28;20496;-86
2023/03/28 04:07:58;;;;;;;3.72;2.80;;;14.10;58.50;;;;;;5097808;28;20032;-86
2023/03/28 04:10:24;;;;;;;3.38;2.72;;;14.20;58.50;;;;;;5097577;28;20485;-86
2023/03/28 04:12:49;;;;;;;3.10;2.80;;;14.10;58.40;;;;;;5100874;28;20470;-86
2023/03/28 04:15:15;;;;;;;3.38;2.60;;;14.20;58.50;;;;;;5101657;28;20024;-87
2023/03/28 04:17:43;;;;;;;2.70;2.45;;;14.20;58.40;;;;;;5079645;28;20027;-87
2023/03/28 04:20:12;;;;;;;3.67;2.50;;;14.20;58.40;;;;;;5089201;28;20020;-87
2023/03/28 04:22:38;;;;;;;3.38;2.90;;;14.20;58.40;;;;;;5088391;28;20028;-85
2023/03/28 04:25:05;;;;;;;2.80;2.47;;;14.20;58.40;;;;;;5086759;28;20463;-87
2023/03/28 04:27:30;;;;;;;3.42;2.60;;;14.30;58.30;;;;;;5084375;28;20044;-85
2023/03/28 04:29:59;;;;;;;2.50;2.10;;;14.30;58.30;;;;;;5085468;28;20020;-86
2023/03/28 04:32:25;;;;;;;3.08;2.53;;;14.30;58.30;;;;;;5087522;28;20040;-85
2023/03/28 04:34:52;;;;;;;2.80;2.50;;;14.30;58.20;;;;;;5090774;28;20493;-86
2023/03/28 04:37:18;;;;;;;2.47;2.20;;;14.30;58.10;;;;;;5099756;28;20020;-89
2023/03/28 04:39:46;;;;;;;2.45;2.25;;;14.30;58.10;;;;;;5099906;28;20480;-86
2023/03/28 04:42:16;;;;;;;4.25;2.58;;;14.40;58.10;;;;;;5099663;28;20055;-86
2023/03/28 04:44:42;;;;;;;2.78;2.30;;;14.40;58.00;;;;;;5100608;28;20020;-88
2023/03/28 04:47:10;;;;;;;3.38;2.67;;;14.40;57.90;;;;;;5079954;28;20024;-86
2023/03/28 04:49:36;;;;;;;2.72;2.53;;;14.40;57.90;;;;;;5078548;28;20531;-88
2023/03/28 04:52:02;;;;;;;2.45;2.22;;;14.50;58.00;;;;;;5057615;28;20051;-83
2023/03/28 04:54:28;;;;;;;2.28;2.08;;;14.50;58.00;;;;;;5074244;28;20107;-76
2023/03/28 04:56:53;;;;;;;2.42;2.22;;;14.50;58.30;;;;;;5080307;28;20477;-89
2023/03/28 04:59:20;;;;;;;2.55;2.35;;;14.60;58.40;;;;;;5063606;28;20036;-86
2023/03/28 05:01:48;;;;;;;2.47;2.28;;;14.70;58.20;;;;;;5089611;28;20040;-87
2023/03/28 05:04:19;;;;;;;2.78;2.40;;;14.80;58.10;;;;;;5076910;28;20083;-83
2023/03/28 05:06:48;;;;;;;2.42;2.13;;;14.80;57.80;;;;;;5095376;28;20040;-88
2023/03/28 05:09:15;;;;;;;2.30;2.10;;;14.90;57.70;;;;;;5096689;28;20047;-93
2023/03/28 05:11:41;;;;;;;2.55;2.10;;;14.90;57.70;;;;;;5077896;28;20024;-94
2023/03/28 05:14:07;;;;;;;2.58;2.00;;;15.00;57.60;;;;;;5096411;28;20027;-91
2023/03/28 05:16:33;;;;;;;2.20;2.00;;;15.00;57.50;;;;;;5077837;28;20032;-89
2023/03/28 05:19:00;;;;;;;2.95;2.25;;;15.00;57.40;;;;;;5103900;28;20050;-92
2023/03/28 05:21:25;;;;;;;2.25;2.05;;;15.00;57.30;;;;;;5105075;28;20428;-89
2023/03/28 05:23:51;;;;;;;2.30;2.10;;;15.10;57.30;;;;;;5103010;28;20028;-90
2023/03/28 05:26:16;;;;;;;2.20;2.00;;;15.10;57.20;;;;;;5084254;28;20024;-94
2023/03/28 05:28:43;;;;;;;2.00;1.90;;;15.10;57.10;;;;;;5103017;28;20025;-93
2023/03/28 05:31:10;;;;;;;2.10;2.00;;;15.20;57.10;;;;;;5094607;28;20028;-88
2023/03/28 05:34:03;;;;;;;2.22;1.85;;;15.20;57.00;;;;;;5070094;28;20047;-86
2023/03/28 05:36:29;;;;;;;2.63;2.00;;;15.20;56.90;;;;;;5091312;28;20060;-88
2023/03/28 05:38:54;;;;;;;2.58;2.00;;;15.20;56.90;;;;;;5104054;28;20031;-90
2023/03/28 05:41:20;;;;;;;3.33;2.33;;;15.20;56.80;;;;;;5105465;28;20071;-90
2023/03/28 05:43:45;;;;;;;1.98;1.88;;;15.30;56.80;;;;;;5085521;28;20058;-85
2023/03/28 05:46:11;;;;;;;2.40;2.17;;;15.30;56.70;;;;;;5080868;28;20030;-92
2023/03/28 05:48:37;;;;;;;2.58;2.05;;;15.30;56.70;;;;;;5101119;28;20100;-90
2023/03/28 05:51:03;;;;;;;2.92;2.03;;;15.30;56.70;;;;;;5099025;28;20032;-78
2023/03/28 05:53:29;;;;;;;1.92;1.83;;;15.30;56.70;;;;;;5094918;28;20055;-84
2023/03/28 05:55:54;;;;;;;2.20;2.03;;;15.40;56.70;;;;;;5094011;28;20035;-84
2023/03/28 05:58:20;;;;;;;2.10;1.90;;;15.40;56.60;;;;;;5096296;28;20466;-79
2023/03/28 06:00:51;;;;;;;2.85;1.73;;;15.50;56.60;;;;;;5104607;28;20024;-87
2023/03/28 06:03:17;;;;;;;2.10;1.90;;;15.50;56.50;;;;;;5113772;28;20055;-82
2023/03/28 06:05:43;;;;;;;2.15;2.00;;;15.60;56.50;;;;;;5097844;28;20019;-83
2023/03/28 06:08:09;;;;;;;2.80;2.30;;;15.60;56.40;;;;;;5099759;28;20544;-83
2023/03/28 06:10:35;;;;;;;2.50;2.30;;;15.70;56.40;;;;;;5097663;28;20047;-83
2023/03/28 06:13:01;;;;;;;3.08;2.50;;;15.70;56.40;;;;;;5097370;28;20114;-82
2023/03/28 06:15:26;;;;;;;2.40;2.20;;;15.70;56.30;;;;;;5116262;28;20051;-84
2023/03/28 06:17:52;;;;;;;2.35;2.15;;;15.70;56.30;;;;;;5116341;28;20473;-87
2023/03/28 06:20:18;;;;;;;2.30;2.10;;;15.70;56.40;;;;;;5115840;28;20461;-82
2023/03/28 06:22:43;;;;;;;2.40;2.20;;;15.70;56.30;;;;;;5116341;28;20072;-84
2023/03/28 06:25:09;;;;;;;2.53;2.20;;;15.70;56.40;;;;;;5115397;28;20077;-83
2023/03/28 06:27:35;;;;;;;2.13;1.92;;;15.70;56.40;;;;;;5117421;28;20483;-88
2023/03/28 06:30:03;;;;;;;2.22;2.03;;;15.70;56.40;;;;;;5116005;28;20031;-82
2023/03/28 06:32:29;;;;;;;2.20;2.00;;;15.70;56.40;;;;;;5113132;28;20039;-85
2023/03/28 06:34:55;;;;;;;3.47;2.28;;;15.70;56.40;;;;;;5114439;28;20054;-86
2023/03/28 06:37:20;;;;;;;3.78;2.22;;;15.60;56.40;;;;;;5094253;28;20467;-85
2023/03/28 06:39:49;;;;;;;2.40;2.20;;;15.60;56.50;;;;;;5093206;28;20128;-80
2023/03/28 06:42:15;;;;;;;2.78;2.40;;;15.60;56.50;;;;;;5093145;28;20032;-82
2023/03/28 06:44:41;;;;;;;2.85;2.40;;;15.50;56.50;;;;;;5095005;28;20074;-85
2023/03/28 06:47:07;;;;;;;2.55;2.13;;;15.50;56.60;;;;;;5077617;28;20020;-83
2023/03/28 06:49:33;;;;;;;2.47;2.28;;;15.40;56.60;;;;;;5095462;28;20024;-86
2023/03/28 06:51:58;;;;;;;2.45;2.10;;;15.40;56.60;;;;;;5095132;28;20039;-83
2023/03/28 06:54:24;;;;;;;1.98;1.80;;;15.40;56.70;;;;;;5096301;28;20032;-83
2023/03/28 06:56:50;;;;;;;2.00;1.80;;;15.30;56.70;;;;;;5093294;28;20032;-82
2023/03/28 06:59:15;;;;;;;2.00;1.88;;;15.30;56.70;;;;;;5074357;28;20433;-82
2023/03/28 07:01:41;;;;;;;1.73;1.63;;;15.20;56.70;;;;;;5093746;28;20115;-81
2023/03/28 07:04:07;;;;;;;2.60;2.00;;;15.20;56.80;;;;;;5094016;28;20482;-80
2023/03/28 07:06:32;;;;;;;1.67;1.50;;;15.20;56.90;;;;;;5094278;28;20435;-81
2023/03/28 07:08:58;;;;;;;1.98;1.88;;;15.20;56.90;;;;;;5097473;28;20030;-84
2023/03/28 07:11:24;;;;;;;2.17;1.75;;;15.20;56.90;;;;;;5097549;28;20030;-84
2023/03/28 07:13:50;;;;;;;1.70;1.60;;;15.10;56.80;;;;;;5094428;28;20020;-84
2023/03/28 07:16:16;;;;;;;1.70;1.60;;;15.20;57.50;;;;;;5096725;28;20028;-84
2023/03/28 07:18:42;;;;;;;4.18;2.03;;;15.20;56.90;;;;;;5075312;28;20322;-81
2023/03/28 07:21:10;;;;;;;2.03;1.83;;;15.20;56.80;;;;;;5093177;28;20055;-87
2023/03/28 07:23:38;;;;;;;2.55;2.35;;;15.10;56.70;;;;;;5094594;28;20369;-82
2023/03/28 07:26:05;;;;;;;1.80;1.70;;;15.10;57.40;;;;;;5095350;28;20020;-84
2023/03/28 07:28:31;;;;;;;2.65;2.10;;;15.00;56.80;;;;;;5079282;28;20040;-87
2023/03/28 07:30:59;;;;;;;3.95;1.92;;;14.90;56.80;;;;;;5095872;28;20031;-82
2023/03/28 07:33:24;;;;;;;2.33;2.10;;;14.90;57.00;;;;;;5094590;28;20043;-81
2023/03/28 07:35:51;;;;;;;3.13;2.47;;;14.80;57.20;;;;;;5075641;28;20058;-77
2023/03/28 07:38:17;;;;;;;2.58;2.35;;;14.80;57.40;;;;;;5092569;28;20103;-75
2023/03/28 07:40:43;;;;;;;3.40;2.60;;;14.70;57.40;;;;;;5092076;28;20103;-76
2023/03/28 07:43:09;;;;;;;3.80;2.40;;;14.70;57.60;;;;;;5092515;28;20529;-76
2023/03/28 07:45:36;;;;;;;3.88;2.20;;;14.60;57.70;;;;;;5092796;28;20024;-77
2023/03/28 07:48:02;;;;;;;2.92;2.55;;;14.60;57.80;;;;;;5092799;28;20024;-76
2023/03/28 07:50:28;;;;;;;2.35;2.15;;;14.50;57.90;;;;;;5092740;28;20057;-77
2023/03/28 07:52:56;;;;;;;2.20;2.00;;;14.50;58.10;;;;;;5093008;28;20028;-75
2023/03/28 07:55:25;;;;;;;2.40;2.10;;;14.40;58.20;;;;;;5092572;28;20028;-75
2023/03/28 07:57:52;;;;;;;2.40;2.20;;;14.40;58.40;;;;;;5092497;28;20038;-75
2023/03/28 08:00:21;;;;;;;3.15;2.20;;;14.40;58.60;;;;;;5076635;28;20028;-77
2023/03/28 08:02:47;;;;;;;4.07;2.50;;;14.30;58.70;;;;;;5096472;28;20036;-76
2023/03/28 08:05:12;;;;;;;2.10;1.98;;;14.30;58.90;;;;;;5096434;28;20028;-75
2023/03/28 08:07:40;;;;;;;2.30;2.10;;;14.30;59.00;;;;;;5096567;28;20338;-77
2023/03/28 08:10:07;;;;;;;3.10;2.42;;;14.30;59.10;;;;;;5096243;28;20135;-76
2023/03/28 08:12:33;;;;;;;2.85;2.40;;;14.20;59.20;;;;;;5096039;28;20040;-76
2023/03/28 08:14:59;;;;;;;2.75;2.45;;;14.20;59.30;;;;;;5096101;28;20448;-75
2023/03/28 08:17:25;;;;;;;2.65;2.42;;;14.20;59.40;;;;;;5096298;28;20032;-76
2023/03/28 08:19:51;;;;;;;2.97;2.50;;;14.20;59.60;;;;;;5096066;28;20024;-75
2023/03/28 08:22:17;;;;;;;3.33;2.65;;;14.10;59.70;;;;;;5095974;28;20039;-76
2023/03/28 08:24:43;;;;;;;2.70;2.40;;;14.10;59.80;;;;;;5095835;28;20034;-76
2023/03/28 08:27:09;;;;;;;2.90;2.55;;;14.10;60.00;;;;;;5096019;28;20531;-76
2023/03/28 08:29:35;;;;;;;3.00;2.60;;;14.10;60.10;;;;;;5096142;28;20021;-77
2023/03/28 08:32:02;;;;;;;3.65;2.58;;;14.10;60.20;;;;;;5077677;28;20028;-75
2023/03/28 08:34:27;;;;;;;3.60;2.70;;;14.00;60.30;;;;;;5077455;28;20032;-76
2023/03/28 08:36:53;;;;;;;3.30;2.70;;;14.00;60.40;;;;;;5114040;28;20055;-75
2023/03/28 08:39:19;;;;;;;3.17;2.60;;;14.00;60.50;;;;;;5115844;28;20032;-75
2023/03/28 08:42:08;;;;;;;2.90;2.60;;;13.90;60.70;;;;;;5115877;28;20035;-76
2023/03/28 08:45:07;;;;;;;4.45;3.00;;;13.90;61.10;;;;;;5115978;28;20031;-76
2023/03/28 08:47:41;;;;;;;2.92;2.47;;;13.80;61.40;;;;;;5115731;28;20027;-75
2023/03/28 08:50:16;;;;;;;2.63;2.43;;;13.80;61.10;;;;;;5115864;28;20103;-76
2023/03/28 08:52:43;;;;;;;3.72;3.28;;;13.80;61.30;;;;;;5116105;28;20466;-75
2023/03/28 08:55:38;;;;;;;3.53;3.08;;;13.70;61.30;;;;;;5115892;28;20055;-76
2023/03/28 08:58:04;;;;;;;3.97;3.05;;;13.70;62.10;;;;;;5110600;28;20110;-74
2023/03/28 09:00:33;;;;;;;3.60;3.28;;;13.70;61.60;;;;;;5116149;28;20036;-76
2023/03/28 09:02:59;;;;;;;3.63;3.28;;;13.70;61.70;;;;;;5097376;28;20039;-76
2023/03/28 09:05:47;;;;;;;3.67;3.10;;;13.70;61.90;;;;;;5097410;28;20076;-75
2023/03/28 09:08:33;;;;;;;3.08;2.70;;;13.70;62.40;;;;;;5097587;28;20113;-75
2023/03/28 09:11:27;;;;;;;3.70;2.80;;;13.70;62.10;;;;;;5114885;28;20028;-77
2023/03/28 09:14:05;;;;;;;4.03;3.05;;;13.60;62.80;;;;;;5078535;28;20032;-76
2023/03/28 09:16:46;;;;;;;3.85;3.45;;;13.60;62.40;;;;;;5115791;28;20102;-77
2023/03/28 09:19:27;;;;;;;4.30;3.38;;;13.60;62.50;;;;;;5116071;28;20024;-76
2023/03/28 09:21:55;;;;;;;4.93;3.90;;;13.50;62.60;;;;;;5115934;28;20119;-76
2023/03/28 09:24:38;;;;;;;4.22;3.47;;;13.60;62.80;;;;;;5115296;28;20020;-76
2023/03/28 09:27:12;;;;;;;4.13;3.22;;;13.60;63.20;;;;;;5096840;28;20385;-76
2023/03/28 09:29:40;;;;;;;4.07;3.47;;;13.50;63.60;;;;;;5115296;28;20134;-76
2023/03/28 09:32:21;;;;;;;4.65;3.63;;;13.50;63.00;;;;;;5115296;28;20047;-76
2023/03/28 09:34:49;;;;;;;3.40;3.10;;;13.50;63.40;;;;;;5097193;28;20032;-76
2023/03/28 09:37:39;;;;;;;4.07;3.58;;;13.50;63.20;;;;;;5097107;28;20113;-76
2023/03/28 09:40:25;;;;;;;3.53;3.17;;;13.50;63.80;;;;;;5097011;28;20122;-76
2023/03/28 09:43:18;;;;;;;3.80;3.40;;;13.50;63.80;;;;;;5114669;28;20540;-75
2023/03/28 09:46:04;;;;;;;3.42;3.13;;;13.50;63.50;;;;;;5082699;28;20023;-76
2023/03/28 09:48:36;;;;;;;3.72;3.30;;;13.60;63.80;;;;;;5096599;28;20055;-76
2023/03/28 09:51:04;;;;;;;4.05;3.35;;;13.60;63.40;;;;;;5114620;28;20039;-76
2023/03/28 09:53:35;;;;;;;4.70;3.50;;;13.60;63.60;;;;;;5114528;28;20024;-76
2023/03/28 09:56:06;;;;;;;4.15;3.05;;;13.60;63.70;;;;;;5115113;28;20023;-76
2023/03/28 09:58:48;;;;;;;3.40;3.10;;;13.50;63.90;;;;;;5115188;28;20050;-76
2023/03/28 10:01:39;;;;;;;3.63;2.92;;;13.50;64.10;;;;;;5096756;28;20023;-76
2023/03/28 10:04:17;;;;;;;4.07;3.10;;;13.50;64.30;;;;;;5114847;28;20064;-76
2023/03/28 10:06:45;;;;;;;3.08;2.78;;;13.50;64.10;;;;;;5114944;28;20063;-75
2023/03/28 10:09:18;;;;;;;4.72;3.80;;;13.50;64.10;;;;;;5114796;28;20426;-75
2023/03/28 10:11:55;;;;;;;3.92;2.80;;;13.50;64.30;;;;;;5115296;28;20474;-76
2023/03/28 10:14:27;;;;;;;3.97;3.58;;;13.50;64.50;;;;;;5096445;28;20035;-77
2023/03/28 10:16:52;;;;;;;3.70;2.90;;;13.40;64.50;;;;;;5114581;28;20046;-76
2023/03/28 10:19:30;;;;;;;3.17;2.80;;;13.40;64.60;;;;;;5114429;28;20465;-76
2023/03/28 10:21:56;;;;;;;3.50;3.00;;;13.40;64.70;;;;;;5096267;28;20041;-76
2023/03/28 10:24:22;;;;;;;4.72;3.38;;;13.40;64.80;;;;;;5096211;28;20444;-76
2023/03/28 10:26:47;;;;;;;3.78;3.10;;;13.50;64.80;;;;;;5114421;28;20024;-76
2023/03/28 10:29:14;;;;;;;4.18;3.00;;;13.50;64.80;;;;;;5114351;28;20054;-76
2023/03/28 10:31:48;;;;;;;3.08;2.70;;;13.50;64.80;;;;;;5114349;28;20031;-76
2023/03/28 10:34:28;;;;;;;3.08;2.80;;;13.50;65.00;;;;;;5113036;28;20042;-76
2023/03/28 10:36:54;;;;;;;2.78;2.53;;;13.50;65.30;;;;;;5095522;28;20062;-77
2023/03/28 10:39:27;;;;;;;2.72;2.53;;;13.50;65.10;;;;;;5095310;28;20381;-75
2023/03/28 10:41:55;;;;;;;2.70;2.50;;;13.50;65.10;;;;;;5112874;28;20027;-76
2023/03/28 10:44:30;;;;;;;3.80;3.15;;;13.60;65.10;;;;;;5113753;28;20469;-77
2023/03/28 10:47:00;;;;;;;4.20;2.90;;;13.60;65.30;;;;;;5114573;28;20401;-77
2023/03/28 10:49:29;;;;;;;3.67;2.50;;;13.50;65.20;;;;;;5113942;28;20027;-76
2023/03/28 10:51:55;;;;;;;3.30;2.63;;;13.50;65.30;;;;;;5113945;28;20023;-75
2023/03/28 10:54:27;;;;;;;2.92;2.42;;;13.50;65.30;;;;;;5095566;28;20330;-75
2023/03/28 10:57:26;;;;;;;2.60;2.33;;;13.50;65.40;;;;;;5113898;28;20024;-75
2023/03/28 10:59:59;;;;;;;2.10;2.00;;;13.50;66.00;;;;;;5114109;28;20491;-76
2023/03/28 11:02:51;;;;;;;2.63;2.42;;;13.50;65.60;;;;;;5095816;28;20123;-76
2023/03/28 11:05:52;;;;;;;2.40;2.20;;;13.50;66.00;;;;;;5113294;28;20557;-75
2023/03/28 11:08:35;;;;;;;2.40;2.20;;;13.50;65.80;;;;;;5113626;28;20024;-75
2023/03/28 11:11:13;;;;;;;2.35;2.10;;;13.50;66.00;;;;;;5113587;28;20461;-75
2023/03/28 11:13:51;;;;;;;2.42;2.22;;;13.40;65.80;;;;;;5113661;28;20508;-75
2023/03/28 11:17:03;;;;;;;2.88;2.20;;;13.40;65.80;;;;;;5113650;28;20358;-76
2023/03/28 11:20:06;;;;;;;2.15;1.98;;;13.40;66.20;;;;;;5011008;28;20558;-76
2023/03/28 11:23:09;;;;;;;2.33;2.13;;;13.40;66.10;;;;;;5095497;28;20106;-75
2023/03/28 11:25:59;;;;;;;2.85;2.00;;;13.50;66.30;;;;;;5113300;28;20034;-76
2023/03/28 11:28:31;;;;;;;2.10;1.90;;;13.50;66.10;;;;;;5095153;28;20165;-76
2023/03/28 11:30:59;;;;;;;1.83;1.73;;;13.50;66.10;;;;;;5113214;28;20088;-76
2023/03/28 11:33:36;;;;;;;1.80;1.70;;;13.50;66.10;;;;;;5113722;28;20110;-75
2023/03/28 11:36:13;;;;;;;2.10;2.00;;;13.60;66.30;;;;;;5106150;28;20108;-76
2023/03/28 11:38:43;;;;;;;2.22;2.00;;;13.60;66.20;;;;;;5096793;28;20081;-76
2023/03/28 11:41:20;;;;;;;1.90;1.80;;;13.60;66.20;;;;;;5078938;28;20470;-75
2023/03/28 11:43:58;;;;;;;2.35;2.15;;;13.60;66.40;;;;;;5079451;28;20067;-77
2023/03/28 11:46:29;;;;;;;2.15;1.95;;;13.60;66.30;;;;;;5097180;28;20024;-77
2023/03/28 11:49:19;;;;;;;2.40;2.20;;;13.60;66.40;;;;;;5096477;28;20492;-76
2023/03/28 11:52:19;;;;;;;2.42;2.00;;;13.60;67.00;;;;;;5096595;28;20114;-76
2023/03/28 11:55:00;;;;;;;2.20;2.00;;;13.60;66.50;;;;;;5057065;28;20456;-76
2023/03/28 11:57:38;;;;;;;3.13;2.45;;;13.60;66.50;;;;;;5097164;28;20462;-76
2023/03/28 12:00:27;;;;;;;2.42;2.22;;;13.60;66.60;;;;;;5097221;28;20373;-75
2023/03/28 12:03:05;;;;;;;2.30;2.10;;;13.60;66.70;;;;;;5097051;28;20052;-76
2023/03/28 12:05:50;;;;;;;2.85;2.10;;;13.60;66.50;;;;;;5078824;28;20028;-76
2023/03/28 12:08:35;;;;;;;2.60;2.30;;;13.60;66.60;;;;;;5078792;28;20028;-76
2023/03/28 12:11:06;;;;;;;3.88;2.63;;;13.50;66.50;;;;;;5096855;28;20032;-76
2023/03/28 12:13:56;;;;;;;3.42;2.50;;;13.50;66.50;;;;;;5096540;28;20106;-76
2023/03/28 12:16:36;;;;;;;2.75;2.40;;;13.50;66.60;;;;;;5096551;28;20466;-77
2023/03/28 12:19:05;;;;;;;3.50;2.60;;;13.50;66.60;;;;;;5096878;28;20074;-76
2023/03/28 12:21:55;;;;;;;3.45;2.70;;;13.40;66.60;;;;;;5096787;28;20031;-76
2023/03/28 12:24:25;;;;;;;4.22;2.65;;;13.40;66.70;;;;;;5077946;28;20028;-76
2023/03/28 12:27:16;;;;;;;2.80;2.50;;;13.30;66.70;;;;;;5096346;28;20517;-76
2023/03/28 12:30:04;;;;;;;3.00;2.70;;;13.30;67.00;;;;;;5096126;28;20094;-76
2023/03/28 12:32:48;;;;;;;3.00;2.63;;;13.30;66.80;;;;;;5095916;28;20032;-76
2023/03/28 12:35:23;;;;;;;4.03;2.70;;;13.30;66.90;;;;;;5095726;28;20063;-77
2023/03/28 12:38:01;;;;;;;3.42;2.40;;;13.20;66.80;;;;;;5096418;28;20410;-76
2023/03/28 12:40:58;;;;;;;3.22;2.70;;;13.20;66.90;;;;;;5096032;28;20032;-75
2023/03/28 12:43:45;;;;;;;2.92;2.40;;;13.20;67.40;;;;;;5096181;28;20040;-76
2023/03/28 12:46:15;;;;;;;2.60;2.30;;;13.20;67.20;;;;;;5094612;28;20461;-75
2023/03/28 12:48:50;;;;;;;2.42;2.22;;;13.20;67.20;;;;;;5095750;28;20021;-76
2023/03/28 12:51:42;;;;;;;3.00;2.53;;;13.20;67.20;;;;;;5095694;28;20078;-76
2023/03/28 12:54:14;;;;;;;2.53;2.33;;;13.20;67.30;;;;;;5090376;28;20042;-76
2023/03/28 12:56:40;;;;;;;2.83;2.53;;;13.20;67.30;;;;;;5095501;28;20024;-76
2023/03/28 12:59:55;;;;;;;2.75;2.35;;;13.20;67.30;;;;;;5077261;28;20040;-76
2023/03/28 13:02:40;;;;;;;2.55;2.33;;;13.20;67.80;;;;;;5002758;28;20378;-76
2023/03/28 13:05:19;;;;;;;4.65;2.80;;;13.20;67.80;;;;;;5095272;28;20090;-75
2023/03/28 13:07:57;;;;;;;2.65;2.40;;;13.20;67.60;;;;;;5095172;28;20036;-76
2023/03/28 13:10:29;;;;;;;3.00;2.50;;;13.20;67.70;;;;;;5095010;28;20035;-77
2023/03/28 13:13:00;;;;;;;3.15;2.50;;;13.20;67.70;;;;;;5095399;28;20028;-76
2023/03/28 13:15:30;;;;;;;3.20;2.80;;;13.20;67.80;;;;;;5095231;28;20028;-76